sensor_id;sensor_type;location;lat;lon;timestamp;pressure;altitude;pressure_sealevel;temperature
18474;BMP180;30265;52.408;13.500;2022-10-16T00:06:54;100935.00;;;14.30
18474;BMP180;30265;52.408;13.500;2022-10-16T00:17:19;100948.00;;;14.50
18474;BMP180;30265;52.408;13.500;2022-10-16T00:27:41;100935.00;;;14.60
18474;BMP180;30265;52.408;13.500;2022-10-16T00:38:06;100951.00;;;14.70
18474;BMP180;30265;52.408;13.500;2022-10-16T00:48:32;100959.00;;;14.80
18474;BMP180;30265;52.408;13.500;2022-10-16T00:58:55;100958.00;;;14.80
18474;BMP180;30265;52.408;13.500;2022-10-16T01:09:27;100962.00;;;14.80
18474;BMP180;30265;52.408;13.500;2022-10-16T01:20:11;100961.00;;;14.70
18474;BMP180;30265;52.408;13.500;2022-10-16T01:30:46;100967.00;;;14.70
18474;BMP180;30265;52.408;13.500;2022-10-16T01:41:16;100982.00;;;14.90
18474;BMP180;30265;52.408;13.500;2022-10-16T01:51:41;100991.00;;;15.10
18474;BMP180;30265;52.408;13.500;2022-10-16T02:02:10;101011.00;;;15.20
18474;BMP180;30265;52.408;13.500;2022-10-16T02:12:36;101004.00;;;15.30
18474;BMP180;30265;52.408;13.500;2022-10-16T02:23:00;101020.00;;;15.40
18474;BMP180;30265;52.408;13.500;2022-10-16T02:33:25;101007.00;;;15.50
18474;BMP180;30265;52.408;13.500;2022-10-16T02:43:53;101019.00;;;15.40
18474;BMP180;30265;52.408;13.500;2022-10-16T02:54:27;101015.00;;;15.30
18474;BMP180;30265;52.408;13.500;2022-10-16T03:04:53;101033.00;;;15.30
18474;BMP180;30265;52.408;13.500;2022-10-16T03:15:15;101054.00;;;15.10
18474;BMP180;30265;52.408;13.500;2022-10-16T03:25:37;101048.00;;;14.90
18474;BMP180;30265;52.408;13.500;2022-10-16T03:36:00;101056.00;;;14.80
18474;BMP180;30265;52.408;13.500;2022-10-16T03:46:22;101079.00;;;14.70
18474;BMP180;30265;52.408;13.500;2022-10-16T03:56:48;101084.00;;;14.70
18474;BMP180;30265;52.408;13.500;2022-10-16T04:07:10;101110.00;;;14.70
18474;BMP180;30265;52.408;13.500;2022-10-16T04:17:33;101112.00;;;14.70
18474;BMP180;30265;52.408;13.500;2022-10-16T04:27:54;101109.00;;;14.70
18474;BMP180;30265;52.408;13.500;2022-10-16T04:38:17;101100.00;;;14.70
18474;BMP180;30265;52.408;13.500;2022-10-16T04:48:44;101091.00;;;14.50
18474;BMP180;30265;52.408;13.500;2022-10-16T04:59:13;101096.00;;;14.40
18474;BMP180;30265;52.408;13.500;2022-10-16T05:09:34;101116.00;;;14.30
18474;BMP180;30265;52.408;13.500;2022-10-16T05:19:57;101142.00;;;14.10
18474;BMP180;30265;52.408;13.500;2022-10-16T05:30:19;101144.00;;;14.10
18474;BMP180;30265;52.408;13.500;2022-10-16T05:40:42;101127.00;;;14.00
18474;BMP180;30265;52.408;13.500;2022-10-16T05:51:05;101142.00;;;14.10
18474;BMP180;30265;52.408;13.500;2022-10-16T06:01:28;101149.00;;;14.20
18474;BMP180;30265;52.408;13.500;2022-10-16T06:11:51;101153.00;;;14.40
18474;BMP180;30265;52.408;13.500;2022-10-16T06:22:17;101167.00;;;14.70
18474;BMP180;30265;52.408;13.500;2022-10-16T06:32:38;101162.00;;;15.00
18474;BMP180;30265;52.408;13.500;2022-10-16T06:43:00;101172.00;;;15.10
18474;BMP180;30265;52.408;13.500;2022-10-16T06:53:22;101204.00;;;15.60
18474;BMP180;30265;52.408;13.500;2022-10-16T07:03:45;101215.00;;;15.70
18474;BMP180;30265;52.408;13.500;2022-10-16T07:14:14;101222.00;;;16.50
18474;BMP180;30265;52.408;13.500;2022-10-16T07:24:47;101220.00;;;16.80
18474;BMP180;30265;52.408;13.500;2022-10-16T07:35:13;101236.00;;;17.40
18474;BMP180;30265;52.408;13.500;2022-10-16T07:45:37;101238.00;;;17.50
18474;BMP180;30265;52.408;13.500;2022-10-16T07:55:58;101247.00;;;17.60
18474;BMP180;30265;52.408;13.500;2022-10-16T08:06:22;101250.00;;;17.40
18474;BMP180;30265;52.408;13.500;2022-10-16T08:16:47;101264.00;;;17.70
18474;BMP180;30265;52.408;13.500;2022-10-16T08:27:09;101279.00;;;18.00
18474;BMP180;30265;52.408;13.500;2022-10-16T08:37:31;101272.00;;;18.30
18474;BMP180;30265;52.408;13.500;2022-10-16T08:48:03;101277.00;;;18.40
18474;BMP180;30265;52.408;13.500;2022-10-16T08:58:29;101289.00;;;18.40
18474;BMP180;30265;52.408;13.500;2022-10-16T09:09:11;101306.00;;;18.10
18474;BMP180;30265;52.408;13.500;2022-10-16T09:19:38;101308.00;;;18.70
18474;BMP180;30265;52.408;13.500;2022-10-16T09:30:12;101321.00;;;19.80
18474;BMP180;30265;52.408;13.500;2022-10-16T09:40:35;101309.00;;;19.70
18474;BMP180;30265;52.408;13.500;2022-10-16T09:51:02;101323.00;;;19.50
18474;BMP180;30265;52.408;13.500;2022-10-16T10:01:30;101337.00;;;19.30
18474;BMP180;30265;52.408;13.500;2022-10-16T10:11:57;101358.00;;;19.60
18474;BMP180;30265;52.408;13.500;2022-10-16T10:22:25;101364.00;;;20.20
18474;BMP180;30265;52.408;13.500;2022-10-16T10:33:00;101380.00;;;19.70
18474;BMP180;30265;52.408;13.500;2022-10-16T10:43:38;101367.00;;;19.80
18474;BMP180;30265;52.408;13.500;2022-10-16T10:54:14;101387.00;;;20.20
18474;BMP180;30265;52.408;13.500;2022-10-16T11:05:22;101392.00;;;20.20
18474;BMP180;30265;52.408;13.500;2022-10-16T11:15:57;101386.00;;;20.10
18474;BMP180;30265;52.408;13.500;2022-10-16T11:26:23;101404.00;;;20.60
18474;BMP180;30265;52.408;13.500;2022-10-16T11:36:51;101403.00;;;20.70
18474;BMP180;30265;52.408;13.500;2022-10-16T11:47:28;101394.00;;;21.60
18474;BMP180;30265;52.408;13.500;2022-10-16T11:58:22;101393.00;;;22.20
18474;BMP180;30265;52.408;13.500;2022-10-16T12:08:46;101405.00;;;21.60
18474;BMP180;30265;52.408;13.500;2022-10-16T12:19:14;101428.00;;;21.50
18474;BMP180;30265;52.408;13.500;2022-10-16T12:29:40;101422.00;;;21.60
18474;BMP180;30265;52.408;13.500;2022-10-16T12:40:27;101432.00;;;21.60
18474;BMP180;30265;52.408;13.500;2022-10-16T12:50:53;101447.00;;;21.30
18474;BMP180;30265;52.408;13.500;2022-10-16T13:01:28;101453.00;;;21.50
18474;BMP180;30265;52.408;13.500;2022-10-16T13:12:05;101458.00;;;21.90
18474;BMP180;30265;52.408;13.500;2022-10-16T13:22:39;101489.00;;;21.30
18474;BMP180;30265;52.408;13.500;2022-10-16T13:33:06;101497.00;;;20.70
18474;BMP180;30265;52.408;13.500;2022-10-16T13:43:35;101507.00;;;21.10
18474;BMP180;30265;52.408;13.500;2022-10-16T13:53:58;101509.00;;;21.20
18474;BMP180;30265;52.408;13.500;2022-10-16T14:04:25;101510.00;;;21.60
18474;BMP180;30265;52.408;13.500;2022-10-16T14:14:54;101514.00;;;21.50
18474;BMP180;30265;52.408;13.500;2022-10-16T14:25:26;101525.00;;;21.00
18474;BMP180;30265;52.408;13.500;2022-10-16T14:35:59;101539.00;;;21.30
18474;BMP180;30265;52.408;13.500;2022-10-16T14:46:29;101538.00;;;20.60
18474;BMP180;30265;52.408;13.500;2022-10-16T14:56:52;101551.00;;;20.80
18474;BMP180;30265;52.408;13.500;2022-10-16T15:07:15;101551.00;;;20.80
18474;BMP180;30265;52.408;13.500;2022-10-16T15:17:37;101558.00;;;20.80
18474;BMP180;30265;52.408;13.500;2022-10-16T15:28:02;101573.00;;;20.20
18474;BMP180;30265;52.408;13.500;2022-10-16T15:38:24;101578.00;;;19.90
18474;BMP180;30265;52.408;13.500;2022-10-16T15:48:48;101605.00;;;19.50
18474;BMP180;30265;52.408;13.500;2022-10-16T15:59:10;101638.00;;;19.10
18474;BMP180;30265;52.408;13.500;2022-10-16T16:09:34;101640.00;;;18.40
18474;BMP180;30265;52.408;13.500;2022-10-16T16:19:56;101654.00;;;17.70
18474;BMP180;30265;52.408;13.500;2022-10-16T16:30:19;101664.00;;;17.40
18474;BMP180;30265;52.408;13.500;2022-10-16T16:40:47;101695.00;;;17.10
18474;BMP180;30265;52.408;13.500;2022-10-16T16:51:17;101705.00;;;16.30
18474;BMP180;30265;52.408;13.500;2022-10-16T17:01:40;101724.00;;;15.60
18474;BMP180;30265;52.408;13.500;2022-10-16T17:12:05;101733.00;;;15.50
18474;BMP180;30265;52.408;13.500;2022-10-16T17:22:27;101754.00;;;14.90
18474;BMP180;30265;52.408;13.500;2022-10-16T17:33:02;101769.00;;;14.60
18474;BMP180;30265;52.408;13.500;2022-10-16T17:43:24;101800.00;;;14.00
18474;BMP180;30265;52.408;13.500;2022-10-16T17:53:50;101805.00;;;14.00
18474;BMP180;30265;52.408;13.500;2022-10-16T18:04:21;101791.00;;;13.80
18474;BMP180;30265;52.408;13.500;2022-10-16T18:14:51;101794.00;;;13.60
18474;BMP180;30265;52.408;13.500;2022-10-16T18:25:17;101820.00;;;13.20
18474;BMP180;30265;52.408;13.500;2022-10-16T18:35:41;101820.00;;;13.20
18474;BMP180;30265;52.408;13.500;2022-10-16T18:46:05;101835.00;;;12.70
18474;BMP180;30265;52.408;13.500;2022-10-16T18:56:30;101862.00;;;12.70
18474;BMP180;30265;52.408;13.500;2022-10-16T19:06:56;101852.00;;;12.50
18474;BMP180;30265;52.408;13.500;2022-10-16T19:17:19;101836.00;;;12.50
18474;BMP180;30265;52.408;13.500;2022-10-16T19:27:41;101845.00;;;12.40
18474;BMP180;30265;52.408;13.500;2022-10-16T19:38:05;101855.00;;;12.30
18474;BMP180;30265;52.408;13.500;2022-10-16T19:48:29;101853.00;;;12.20
18474;BMP180;30265;52.408;13.500;2022-10-16T19:58:59;101882.00;;;12.70
18474;BMP180;30265;52.408;13.500;2022-10-16T20:09:24;101901.00;;;12.70
18474;BMP180;30265;52.408;13.500;2022-10-16T20:19:47;101908.00;;;12.90
18474;BMP180;30265;52.408;13.500;2022-10-16T20:30:09;101936.00;;;12.30
18474;BMP180;30265;52.408;13.500;2022-10-16T20:40:35;101935.00;;;12.20
18474;BMP180;30265;52.408;13.500;2022-10-16T20:50:59;101940.00;;;12.10
18474;BMP180;30265;52.408;13.500;2022-10-16T21:01:35;101931.00;;;12.10
18474;BMP180;30265;52.408;13.500;2022-10-16T21:12:02;101933.00;;;12.40
18474;BMP180;30265;52.408;13.500;2022-10-16T21:22:33;101938.00;;;12.30
18474;BMP180;30265;52.408;13.500;2022-10-16T21:32:59;101949.00;;;12.50
18474;BMP180;30265;52.408;13.500;2022-10-16T21:43:28;101972.00;;;12.40
18474;BMP180;30265;52.408;13.500;2022-10-16T21:53:50;101975.00;;;12.40
18474;BMP180;30265;52.408;13.500;2022-10-16T22:04:19;101982.00;;;12.30
18474;BMP180;30265;52.408;13.500;2022-10-16T22:14:41;101968.00;;;12.10
18474;BMP180;30265;52.408;13.500;2022-10-16T22:25:04;101982.00;;;12.10
18474;BMP180;30265;52.408;13.500;2022-10-16T22:35:26;101979.00;;;12.00
18474;BMP180;30265;52.408;13.500;2022-10-16T22:45:49;101980.00;;;12.00
18474;BMP180;30265;52.408;13.500;2022-10-16T22:56:11;101994.00;;;12.20
18474;BMP180;30265;52.408;13.500;2022-10-16T23:06:34;101993.00;;;12.30
18474;BMP180;30265;52.408;13.500;2022-10-16T23:16:55;101991.00;;;12.40
18474;BMP180;30265;52.408;13.500;2022-10-16T23:27:18;101991.00;;;12.50
18474;BMP180;30265;52.408;13.500;2022-10-16T23:37:40;101992.00;;;12.80
18474;BMP180;30265;52.408;13.500;2022-10-16T23:48:02;101997.00;;;12.80
18474;BMP180;30265;52.408;13.500;2022-10-16T23:58:24;102012.00;;;12.90
